createdAt,value
2022-10-02T00:03:36.681Z,7.8
2022-10-02T00:08:36.688Z,8.0
2022-10-02T00:13:36.690Z,9.2
2022-10-02T00:18:36.698Z,9.3
2022-10-02T00:23:36.699Z,9.8
2022-10-02T00:28:36.704Z,10.4
2022-10-02T00:33:36.713Z,10.3
2022-10-02T00:38:36.709Z,9.4
2022-10-02T00:43:36.708Z,9.4
2022-10-02T00:48:36.715Z,8.9
2022-10-02T00:53:36.715Z,8.8
2022-10-02T00:58:36.720Z,8.3
2022-10-02T01:03:36.721Z,6.9
2022-10-02T01:08:36.728Z,6.4
2022-10-02T01:13:36.729Z,6.5
2022-10-02T01:18:36.733Z,5.8
2022-10-02T01:23:36.737Z,5.2
2022-10-02T01:28:36.732Z,4.7
2022-10-02T01:33:36.772Z,4.6
2022-10-02T01:38:36.738Z,4.4
2022-10-02T01:43:36.747Z,4.5
2022-10-02T01:48:36.739Z,3.7
2022-10-02T01:53:36.745Z,3.9
2022-10-02T01:58:36.750Z,4.0
2022-10-02T02:03:36.753Z,4.4
2022-10-02T02:08:36.755Z,3.6
2022-10-02T02:13:36.769Z,3.2
2022-10-02T02:18:36.762Z,3.5
2022-10-02T02:23:36.766Z,3.1
2022-10-02T02:28:36.771Z,3.1
2022-10-02T02:33:36.768Z,3.4
2022-10-02T02:38:36.810Z,2.8
2022-10-02T02:43:36.771Z,3.1
2022-10-02T02:48:36.780Z,3.4
2022-10-02T02:53:36.777Z,3.1
2022-10-02T02:58:36.786Z,4.5
2022-10-02T03:03:36.782Z,3.9
2022-10-02T03:08:36.787Z,3.7
2022-10-02T03:13:36.790Z,3.2
2022-10-02T03:18:36.804Z,3.3
2022-10-02T03:23:36.797Z,3.4
2022-10-02T03:28:54.961Z,3.9
2022-10-02T03:33:36.810Z,3.1
2022-10-02T03:38:36.810Z,3.4
2022-10-02T03:43:36.809Z,3.0
2022-10-02T03:48:36.812Z,3.4
2022-10-02T03:53:36.819Z,2.8
2022-10-02T03:58:36.820Z,2.7
2022-10-02T04:03:36.935Z,2.6
2022-10-02T04:08:36.845Z,2.5
2022-10-02T04:13:36.827Z,3.0
2022-10-02T04:18:36.833Z,2.5
2022-10-02T04:23:36.840Z,2.4
2022-10-02T04:28:36.839Z,2.5
2022-10-02T04:33:38.461Z,3.2
2022-10-02T04:38:36.842Z,2.8
2022-10-02T04:43:36.841Z,2.8
2022-10-02T04:48:36.850Z,2.4
2022-10-02T04:53:36.844Z,2.8
2022-10-02T04:58:36.856Z,2.8
2022-10-02T05:03:36.850Z,2.1
2022-10-02T05:08:36.863Z,2.2
2022-10-02T05:13:36.856Z,2.8
2022-10-02T05:18:36.863Z,2.7
2022-10-02T05:23:36.871Z,3.1
2022-10-02T05:28:36.863Z,3.0
2022-10-02T05:33:36.864Z,3.4
2022-10-02T05:38:36.871Z,4.3
2022-10-02T05:43:36.873Z,4.2
2022-10-02T05:48:36.883Z,4.3
2022-10-02T05:53:36.877Z,4.0
2022-10-02T05:58:36.879Z,4.7
2022-10-02T06:03:36.886Z,4.7
2022-10-02T06:08:36.886Z,4.9
2022-10-02T06:13:36.891Z,5.5
2022-10-02T06:18:36.896Z,6.0
2022-10-02T06:23:36.896Z,5.6
2022-10-02T06:28:36.902Z,6.0
2022-10-02T06:33:36.903Z,7.0
2022-10-02T06:38:36.906Z,6.6
2022-10-02T06:43:36.904Z,6.9
2022-10-02T06:48:36.917Z,7.8
2022-10-02T06:53:36.911Z,7.4
2022-10-02T06:58:36.913Z,8.8
2022-10-02T07:03:36.935Z,8.8
2022-10-02T07:08:36.942Z,8.2
2022-10-02T07:13:36.930Z,7.8
2022-10-02T07:18:36.933Z,6.9
2022-10-02T07:23:36.942Z,6.9
2022-10-02T07:28:36.937Z,6.7
2022-10-02T07:33:36.944Z,6.3
2022-10-02T07:38:36.946Z,5.6
2022-10-02T07:43:36.947Z,4.9
2022-10-02T07:48:36.951Z,5.8
2022-10-02T07:53:36.956Z,4.9
2022-10-02T07:58:36.963Z,4.8
2022-10-02T08:03:37.016Z,5.6
2022-10-02T08:08:36.971Z,5.9
2022-10-02T08:13:36.971Z,6.8
2022-10-02T08:18:36.983Z,5.8
2022-10-02T08:23:36.980Z,5.8
2022-10-02T08:28:36.978Z,5.4
2022-10-02T08:33:36.984Z,5.6
2022-10-02T08:38:36.991Z,5.1
2022-10-02T08:43:36.989Z,5.8
2022-10-02T08:48:36.996Z,5.9
2022-10-02T08:53:37.002Z,6.0
2022-10-02T08:58:37.008Z,5.1
2022-10-02T09:03:37.007Z,4.0
2022-10-02T09:08:37.017Z,3.9
2022-10-02T09:13:37.015Z,4.2
2022-10-02T09:18:37.022Z,3.8
2022-10-02T09:23:37.022Z,3.5
2022-10-02T09:28:37.025Z,3.3
2022-10-02T09:33:37.023Z,2.7
2022-10-02T09:38:39.089Z,2.9
2022-10-02T09:43:37.029Z,2.5
2022-10-02T09:48:37.043Z,3.2
2022-10-02T09:53:37.050Z,2.4
2022-10-02T09:58:37.044Z,2.1
2022-10-02T10:03:37.050Z,1.8
2022-10-02T10:08:37.053Z,2.1
2022-10-02T10:13:37.052Z,1.9
2022-10-02T10:18:37.059Z,1.9
2022-10-02T10:23:37.061Z,2.2
2022-10-02T10:28:37.065Z,1.7
2022-10-02T10:33:37.068Z,1.9
2022-10-02T10:38:37.075Z,1.7
2022-10-02T10:43:37.074Z,1.8
2022-10-02T10:48:37.096Z,1.6
2022-10-02T10:53:37.083Z,2.0
2022-10-02T10:58:37.104Z,1.8
2022-10-02T11:03:37.091Z,1.9
2022-10-02T11:08:37.094Z,1.6
2022-10-02T11:13:37.100Z,1.7
2022-10-02T11:18:37.107Z,1.7
2022-10-02T11:23:37.112Z,1.3
2022-10-02T11:28:37.105Z,1.4
2022-10-02T11:33:37.108Z,1.2
2022-10-02T11:38:37.107Z,1.8
2022-10-02T11:43:41.743Z,1.5
2022-10-02T11:48:37.114Z,1.4
2022-10-02T11:53:37.121Z,1.3
2022-10-02T11:58:37.113Z,1.8
2022-10-02T12:03:37.181Z,1.8
2022-10-02T12:08:37.129Z,1.7
2022-10-02T12:13:37.122Z,1.4
2022-10-02T12:18:37.134Z,1.6
2022-10-02T12:23:37.147Z,1.6
2022-10-02T12:28:37.140Z,1.4
2022-10-02T12:33:37.139Z,3.3
2022-10-02T12:38:37.155Z,1.8
2022-10-02T12:43:37.146Z,1.2
2022-10-02T12:48:37.154Z,1.6
2022-10-02T12:53:37.162Z,1.4
2022-10-02T12:58:37.160Z,1.4
2022-10-02T13:03:37.164Z,1.4
2022-10-02T13:08:37.174Z,1.4
2022-10-02T13:13:37.174Z,1.9
2022-10-02T13:18:37.175Z,1.3
2022-10-02T13:23:41.121Z,1.0
2022-10-02T13:28:37.173Z,1.2
2022-10-02T13:33:37.187Z,1.1
2022-10-02T13:38:37.180Z,1.3
2022-10-02T13:43:37.188Z,1.3
2022-10-02T13:48:37.187Z,1.4
2022-10-02T13:53:37.212Z,1.5
2022-10-02T13:58:37.194Z,1.5
2022-10-02T14:03:37.264Z,1.2
2022-10-02T14:08:37.203Z,1.1
2022-10-02T14:13:37.211Z,1.2
2022-10-02T14:18:37.199Z,1.2
2022-10-02T14:23:37.211Z,1.1
2022-10-02T14:28:37.211Z,1.4
2022-10-02T14:33:37.214Z,1.4
2022-10-02T14:38:37.223Z,1.3
2022-10-02T14:43:37.222Z,1.5
2022-10-02T14:48:37.225Z,1.4
2022-10-02T14:53:37.227Z,0.9
2022-10-02T14:58:37.226Z,1.2
2022-10-02T15:03:37.230Z,1.0
2022-10-02T15:08:37.237Z,1.0
2022-10-02T15:13:37.244Z,1.5
2022-10-02T15:18:38.525Z,1.2
2022-10-02T15:23:37.245Z,1.6
2022-10-02T15:28:37.587Z,1.7
2022-10-02T15:33:37.248Z,1.1
2022-10-02T15:38:37.260Z,0.9
2022-10-02T15:43:37.255Z,1.4
2022-10-02T15:48:37.250Z,1.2
2022-10-02T15:53:37.256Z,1.5
2022-10-02T15:58:37.258Z,1.3
2022-10-02T16:03:37.274Z,1.2
2022-10-02T16:08:37.262Z,1.1
2022-10-02T16:13:37.266Z,1.5
2022-10-02T16:18:37.279Z,1.4
2022-10-02T16:23:37.273Z,1.2
2022-10-02T16:28:37.268Z,1.6
2022-10-02T16:33:37.279Z,1.1
2022-10-02T16:38:37.280Z,1.7
2022-10-02T16:43:37.287Z,1.3
2022-10-02T16:48:37.283Z,1.9
2022-10-02T16:53:37.288Z,1.5
2022-10-02T16:58:37.283Z,1.4
2022-10-02T17:03:37.289Z,1.5
2022-10-02T17:08:37.292Z,1.5
2022-10-02T17:13:37.287Z,1.4
2022-10-02T17:18:37.291Z,1.3
2022-10-02T17:23:37.296Z,1.3
2022-10-02T17:28:37.289Z,1.4
2022-10-02T17:33:37.297Z,1.6
2022-10-02T17:38:37.296Z,1.3
2022-10-02T17:43:37.301Z,1.9
2022-10-02T17:48:37.302Z,1.3
2022-10-02T17:53:37.305Z,1.5
2022-10-02T17:58:37.305Z,1.3
2022-10-02T18:03:37.310Z,1.4
2022-10-02T18:08:37.318Z,1.2
2022-10-02T18:13:37.310Z,1.6
2022-10-02T18:18:37.336Z,2.0
2022-10-02T18:23:37.322Z,2.1
2022-10-02T18:28:37.324Z,1.7
2022-10-02T18:33:37.325Z,1.8
2022-10-02T18:38:37.324Z,1.8
2022-10-02T18:43:37.332Z,2.2
2022-10-02T18:48:37.331Z,1.6
2022-10-02T18:53:37.334Z,2.0
2022-10-02T18:58:37.333Z,2.0
2022-10-02T19:03:37.336Z,2.2
2022-10-02T19:08:37.329Z,2.1
2022-10-02T19:13:37.338Z,2.6
2022-10-02T19:18:37.344Z,2.4
2022-10-02T19:23:37.345Z,2.4
2022-10-02T19:28:37.345Z,2.6
2022-10-02T19:33:37.352Z,2.7
2022-10-02T19:38:37.350Z,2.7
2022-10-02T19:43:37.353Z,2.5
2022-10-02T19:48:37.360Z,2.8
2022-10-02T19:53:37.360Z,2.4
2022-10-02T19:58:37.378Z,2.5
2022-10-02T20:03:37.364Z,2.2
2022-10-02T20:08:37.370Z,2.4
2022-10-02T20:13:37.692Z,2.2
2022-10-02T20:18:37.383Z,2.2
2022-10-02T20:23:37.375Z,2.1
2022-10-02T20:28:37.372Z,2.6
2022-10-02T20:33:37.381Z,2.9
2022-10-02T20:38:37.378Z,2.3
2022-10-02T20:43:37.376Z,2.2
2022-10-02T20:48:56.024Z,2.5
2022-10-02T20:53:37.386Z,2.7
2022-10-02T20:58:37.382Z,2.2
2022-10-02T21:03:37.384Z,2.3
2022-10-02T21:08:37.388Z,2.9
2022-10-02T21:13:37.407Z,2.2
2022-10-02T21:18:37.410Z,2.7
2022-10-02T21:23:37.398Z,3.2
2022-10-02T21:28:37.403Z,3.2
2022-10-02T21:33:37.401Z,3.0
2022-10-02T21:38:37.407Z,3.3
2022-10-02T21:43:37.407Z,3.1
2022-10-02T21:48:37.408Z,3.0
2022-10-02T21:53:37.425Z,3.1
2022-10-02T21:58:37.413Z,3.6
2022-10-02T22:03:37.418Z,3.3
2022-10-02T22:08:37.422Z,3.3
2022-10-02T22:13:37.420Z,3.0
2022-10-02T22:18:37.431Z,3.4
2022-10-02T22:23:37.431Z,3.1
2022-10-02T22:28:37.435Z,3.8
2022-10-02T22:33:37.434Z,3.3
2022-10-02T22:38:37.441Z,3.2
2022-10-02T22:43:37.437Z,3.2
2022-10-02T22:48:37.444Z,3.1
2022-10-02T22:53:37.441Z,2.6
2022-10-02T22:58:37.446Z,3.2
2022-10-02T23:03:37.451Z,2.8
2022-10-02T23:08:37.452Z,3.2
2022-10-02T23:13:37.447Z,3.0
2022-10-02T23:18:37.449Z,3.2
2022-10-02T23:23:37.450Z,3.0
2022-10-02T23:28:37.459Z,3.1
2022-10-02T23:33:37.454Z,3.1
2022-10-02T23:38:37.463Z,3.2
2022-10-02T23:43:37.467Z,3.2
2022-10-02T23:48:37.462Z,3.2
2022-10-02T23:53:37.473Z,3.8
2022-10-02T23:58:37.467Z,4.3
